aviador You're here:

YWGT Decoded Metar

WANGARATTA ARP in _UNIDENTIFIED
Report Time2017-09-20 19:30:00
UTC Time2017-09-20 20:05:01
Flight Rules lifr LIFR
Wind180° at 01 kt
W.Decomp.*RWY 18: 1.0 kt HW 0.2 kt LCW
RWY 09: 0.2 kt HW 1.0 kt RCW
W.Rank180° ranks 12
Current wind is below 180° avg. (4.3)
Visibility0500 m
Phenomena:N/A
Clouds:Scattered 002 Hf
CeilingNone
Temp01°C (ISA -13)
Dew Point01°C (100% RH)
AAT-1.2°C
QNH1016 hPa
Density Alt-1,093 ft
Elevation502 ft
Report Wrong Elevation
Raw Report
SPECI YWGT 201930Z AUTO 18001KT 0500 // SCT002 01/01 Q1016=

Extra information for YWGT:More info

Metar Taf Metar & Taf Last 4 Metars F.Rules Stats Wind Profile Meteogram Temp Stats Airport Information Weather charts Add Link Nearby VenuesMetar ALERT Operation Metar Decoded Social comments